sensor_id;sensor_type;location;lat;lon;timestamp;temperature;humidity
3298;DHT22;1661;53.572;10.174;2023-02-23T00:01:33;9.40;87.90
3298;DHT22;1661;53.572;10.174;2023-02-23T00:04:00;9.40;87.90
3298;DHT22;1661;53.572;10.174;2023-02-23T00:06:29;9.40;87.90
3298;DHT22;1661;53.572;10.174;2023-02-23T00:08:57;9.40;87.90
3298;DHT22;1661;53.572;10.174;2023-02-23T00:11:30;9.30;87.80
3298;DHT22;1661;53.572;10.174;2023-02-23T00:13:58;9.30;87.80
3298;DHT22;1661;53.572;10.174;2023-02-23T00:16:25;9.30;87.70
3298;DHT22;1661;53.572;10.174;2023-02-23T00:18:56;9.30;87.70
3298;DHT22;1661;53.572;10.174;2023-02-23T00:21:28;9.20;87.70
3298;DHT22;1661;53.572;10.174;2023-02-23T00:23:58;9.20;87.70
3298;DHT22;1661;53.572;10.174;2023-02-23T00:26:31;9.20;87.70
3298;DHT22;1661;53.572;10.174;2023-02-23T00:29:00;9.20;87.80
3298;DHT22;1661;53.572;10.174;2023-02-23T00:31:30;9.10;87.80
3298;DHT22;1661;53.572;10.174;2023-02-23T00:34:00;9.10;87.80
3298;DHT22;1661;53.572;10.174;2023-02-23T00:36:29;9.10;87.90
3298;DHT22;1661;53.572;10.174;2023-02-23T00:39:01;9.10;87.90
3298;DHT22;1661;53.572;10.174;2023-02-23T00:41:37;9.10;88.00
3298;DHT22;1661;53.572;10.174;2023-02-23T00:44:03;9.00;88.00
3298;DHT22;1661;53.572;10.174;2023-02-23T00:46:31;9.00;87.90
3298;DHT22;1661;53.572;10.174;2023-02-23T00:48:58;9.00;87.90
3298;DHT22;1661;53.572;10.174;2023-02-23T00:51:26;9.00;88.00
3298;DHT22;1661;53.572;10.174;2023-02-23T00:53:58;8.90;88.10
3298;DHT22;1661;53.572;10.174;2023-02-23T00:56:26;8.90;88.10
3298;DHT22;1661;53.572;10.174;2023-02-23T00:58:55;8.90;88.20
3298;DHT22;1661;53.572;10.174;2023-02-23T01:01:25;8.80;88.20
3298;DHT22;1661;53.572;10.174;2023-02-23T01:03:52;8.80;88.40
3298;DHT22;1661;53.572;10.174;2023-02-23T01:06:19;8.80;88.50
3298;DHT22;1661;53.572;10.174;2023-02-23T01:08:50;8.80;88.50
3298;DHT22;1661;53.572;10.174;2023-02-23T01:11:19;8.80;88.70
3298;DHT22;1661;53.572;10.174;2023-02-23T01:13:51;8.80;88.90
3298;DHT22;1661;53.572;10.174;2023-02-23T01:16:22;8.80;89.10
3298;DHT22;1661;53.572;10.174;2023-02-23T01:18:50;8.80;89.30
3298;DHT22;1661;53.572;10.174;2023-02-23T01:21:28;8.80;89.50
3298;DHT22;1661;53.572;10.174;2023-02-23T01:23:56;8.80;89.60
3298;DHT22;1661;53.572;10.174;2023-02-23T01:26:30;8.80;89.80
3298;DHT22;1661;53.572;10.174;2023-02-23T01:29:00;8.80;90.10
3298;DHT22;1661;53.572;10.174;2023-02-23T01:31:29;8.80;90.30
3298;DHT22;1661;53.572;10.174;2023-02-23T01:33:58;8.80;90.50
3298;DHT22;1661;53.572;10.174;2023-02-23T01:36:25;8.70;90.80
3298;DHT22;1661;53.572;10.174;2023-02-23T01:38:53;8.70;91.00
3298;DHT22;1661;53.572;10.174;2023-02-23T01:41:26;8.70;91.10
3298;DHT22;1661;53.572;10.174;2023-02-23T01:43:57;8.70;91.30
3298;DHT22;1661;53.572;10.174;2023-02-23T01:46:25;8.70;91.50
3298;DHT22;1661;53.572;10.174;2023-02-23T01:48:54;8.70;91.80
3298;DHT22;1661;53.572;10.174;2023-02-23T01:51:24;8.70;91.90
3298;DHT22;1661;53.572;10.174;2023-02-23T01:53:56;8.70;92.10
3298;DHT22;1661;53.572;10.174;2023-02-23T01:56:25;8.70;92.20
3298;DHT22;1661;53.572;10.174;2023-02-23T01:58:55;8.70;92.30
3298;DHT22;1661;53.572;10.174;2023-02-23T02:01:23;8.80;92.30
3298;DHT22;1661;53.572;10.174;2023-02-23T02:03:55;8.70;92.40
3298;DHT22;1661;53.572;10.174;2023-02-23T02:06:26;8.70;92.70
3298;DHT22;1661;53.572;10.174;2023-02-23T02:09:00;8.70;92.90
3298;DHT22;1661;53.572;10.174;2023-02-23T02:11:32;8.70;93.10
3298;DHT22;1661;53.572;10.174;2023-02-23T02:14:04;8.70;93.30
3298;DHT22;1661;53.572;10.174;2023-02-23T02:17:10;8.70;93.30
3298;DHT22;1661;53.572;10.174;2023-02-23T02:20:07;8.70;93.30
3298;DHT22;1661;53.572;10.174;2023-02-23T02:26:03;8.70;93.60
3298;DHT22;1661;53.572;10.174;2023-02-23T02:28:57;8.70;93.40
3298;DHT22;1661;53.572;10.174;2023-02-23T02:37:44;8.80;93.30
3298;DHT22;1661;53.572;10.174;2023-02-23T02:40:18;8.70;93.40
3298;DHT22;1661;53.572;10.174;2023-02-23T02:42:59;8.80;93.30
3298;DHT22;1661;53.572;10.174;2023-02-23T02:45:42;8.80;93.30
3298;DHT22;1661;53.572;10.174;2023-02-23T02:48:16;8.80;93.20
3298;DHT22;1661;53.572;10.174;2023-02-23T02:50:49;8.80;93.20
3298;DHT22;1661;53.572;10.174;2023-02-23T02:53:40;8.80;93.20
3298;DHT22;1661;53.572;10.174;2023-02-23T02:56:10;8.80;93.30
3298;DHT22;1661;53.572;10.174;2023-02-23T02:58:38;8.80;93.30
3298;DHT22;1661;53.572;10.174;2023-02-23T03:01:12;8.80;93.30
3298;DHT22;1661;53.572;10.174;2023-02-23T03:03:58;8.80;93.30
3298;DHT22;1661;53.572;10.174;2023-02-23T03:06:45;8.80;93.30
3298;DHT22;1661;53.572;10.174;2023-02-23T03:09:37;8.80;93.30
3298;DHT22;1661;53.572;10.174;2023-02-23T03:12:30;8.80;93.20
3298;DHT22;1661;53.572;10.174;2023-02-23T03:15:35;8.80;93.20
3298;DHT22;1661;53.572;10.174;2023-02-23T03:18:32;8.80;93.10
3298;DHT22;1661;53.572;10.174;2023-02-23T03:21:25;8.90;92.90
3298;DHT22;1661;53.572;10.174;2023-02-23T03:24:16;8.90;92.70
3298;DHT22;1661;53.572;10.174;2023-02-23T03:27:11;8.90;92.40
3298;DHT22;1661;53.572;10.174;2023-02-23T03:30:05;8.90;92.20
3298;DHT22;1661;53.572;10.174;2023-02-23T03:32:54;9.00;91.90
3298;DHT22;1661;53.572;10.174;2023-02-23T03:35:45;9.00;91.80
3298;DHT22;1661;53.572;10.174;2023-02-23T03:38:37;9.00;91.60
3298;DHT22;1661;53.572;10.174;2023-02-23T03:41:25;8.90;91.60
3298;DHT22;1661;53.572;10.174;2023-02-23T03:44:17;9.00;91.70
3298;DHT22;1661;53.572;10.174;2023-02-23T03:47:05;9.00;91.60
3298;DHT22;1661;53.572;10.174;2023-02-23T03:49:53;9.00;91.40
3298;DHT22;1661;53.572;10.174;2023-02-23T03:52:43;9.00;91.40
3298;DHT22;1661;53.572;10.174;2023-02-23T03:55:31;9.00;91.60
3298;DHT22;1661;53.572;10.174;2023-02-23T03:58:20;9.00;91.80
3298;DHT22;1661;53.572;10.174;2023-02-23T04:01:08;9.00;91.80
3298;DHT22;1661;53.572;10.174;2023-02-23T04:03:54;9.00;91.90
3298;DHT22;1661;53.572;10.174;2023-02-23T04:06:43;9.00;91.90
3298;DHT22;1661;53.572;10.174;2023-02-23T04:09:28;9.10;91.90
3298;DHT22;1661;53.572;10.174;2023-02-23T04:12:16;9.10;91.90
3298;DHT22;1661;53.572;10.174;2023-02-23T04:15:09;9.10;91.80
3298;DHT22;1661;53.572;10.174;2023-02-23T04:17:39;9.10;91.80
3298;DHT22;1661;53.572;10.174;2023-02-23T04:20:09;9.10;91.70
3298;DHT22;1661;53.572;10.174;2023-02-23T04:22:36;9.10;91.60
3298;DHT22;1661;53.572;10.174;2023-02-23T04:25:04;9.20;91.60
3298;DHT22;1661;53.572;10.174;2023-02-23T04:27:33;9.20;91.60
3298;DHT22;1661;53.572;10.174;2023-02-23T04:30:03;9.20;91.50
3298;DHT22;1661;53.572;10.174;2023-02-23T04:32:30;9.20;91.50
3298;DHT22;1661;53.572;10.174;2023-02-23T04:34:59;9.20;91.50
3298;DHT22;1661;53.572;10.174;2023-02-23T04:37:25;9.20;91.50
3298;DHT22;1661;53.572;10.174;2023-02-23T04:39:52;9.20;91.60
3298;DHT22;1661;53.572;10.174;2023-02-23T04:42:19;9.30;91.60
3298;DHT22;1661;53.572;10.174;2023-02-23T04:44:46;9.30;91.50
3298;DHT22;1661;53.572;10.174;2023-02-23T04:47:14;9.30;91.40
3298;DHT22;1661;53.572;10.174;2023-02-23T04:49:41;9.30;91.40
3298;DHT22;1661;53.572;10.174;2023-02-23T04:52:09;9.30;91.40
3298;DHT22;1661;53.572;10.174;2023-02-23T04:54:36;9.30;91.30
3298;DHT22;1661;53.572;10.174;2023-02-23T04:57:04;9.30;91.20
3298;DHT22;1661;53.572;10.174;2023-02-23T04:59:30;9.30;91.20
3298;DHT22;1661;53.572;10.174;2023-02-23T05:02:03;9.30;91.10
3298;DHT22;1661;53.572;10.174;2023-02-23T05:04:31;9.30;91.10
3298;DHT22;1661;53.572;10.174;2023-02-23T05:07:00;9.30;90.90
3298;DHT22;1661;53.572;10.174;2023-02-23T05:09:29;9.30;91.00
3298;DHT22;1661;53.572;10.174;2023-02-23T05:11:56;9.20;91.10
3298;DHT22;1661;53.572;10.174;2023-02-23T05:14:23;9.20;91.30
3298;DHT22;1661;53.572;10.174;2023-02-23T05:16:52;9.20;91.40
3298;DHT22;1661;53.572;10.174;2023-02-23T05:19:19;9.20;91.40
3298;DHT22;1661;53.572;10.174;2023-02-23T05:21:47;9.30;91.40
3298;DHT22;1661;53.572;10.174;2023-02-23T05:24:14;9.30;91.40
3298;DHT22;1661;53.572;10.174;2023-02-23T05:26:43;9.30;91.20
3298;DHT22;1661;53.572;10.174;2023-02-23T05:29:11;9.40;91.10
3298;DHT22;1661;53.572;10.174;2023-02-23T05:31:41;9.40;91.00
3298;DHT22;1661;53.572;10.174;2023-02-23T05:34:10;9.40;90.90
3298;DHT22;1661;53.572;10.174;2023-02-23T05:36:40;9.40;90.90
3298;DHT22;1661;53.572;10.174;2023-02-23T05:39:07;9.40;90.80
3298;DHT22;1661;53.572;10.174;2023-02-23T05:41:37;9.40;90.70
3298;DHT22;1661;53.572;10.174;2023-02-23T05:44:06;9.40;90.80
3298;DHT22;1661;53.572;10.174;2023-02-23T05:46:33;9.40;90.70
3298;DHT22;1661;53.572;10.174;2023-02-23T05:49:00;9.40;90.70
3298;DHT22;1661;53.572;10.174;2023-02-23T05:51:29;9.50;90.60
3298;DHT22;1661;53.572;10.174;2023-02-23T05:53:59;9.50;90.70
3298;DHT22;1661;53.572;10.174;2023-02-23T05:56:29;9.50;90.60
3298;DHT22;1661;53.572;10.174;2023-02-23T05:58:56;9.50;90.60
3298;DHT22;1661;53.572;10.174;2023-02-23T06:01:25;9.50;90.50
3298;DHT22;1661;53.572;10.174;2023-02-23T06:03:52;9.50;90.50
3298;DHT22;1661;53.572;10.174;2023-02-23T06:06:20;9.50;90.40
3298;DHT22;1661;53.572;10.174;2023-02-23T06:08:50;9.50;90.50
3298;DHT22;1661;53.572;10.174;2023-02-23T06:11:16;9.50;90.50
3298;DHT22;1661;53.572;10.174;2023-02-23T06:13:46;9.40;90.60
3298;DHT22;1661;53.572;10.174;2023-02-23T06:16:15;9.40;90.60
3298;DHT22;1661;53.572;10.174;2023-02-23T06:18:43;9.40;90.50
3298;DHT22;1661;53.572;10.174;2023-02-23T06:21:10;9.40;90.50
3298;DHT22;1661;53.572;10.174;2023-02-23T06:23:37;9.50;90.60
3298;DHT22;1661;53.572;10.174;2023-02-23T06:26:04;9.40;90.70
3298;DHT22;1661;53.572;10.174;2023-02-23T06:28:32;9.50;90.70
3298;DHT22;1661;53.572;10.174;2023-02-23T06:31:02;9.50;90.60
3298;DHT22;1661;53.572;10.174;2023-02-23T06:33:31;9.50;90.50
3298;DHT22;1661;53.572;10.174;2023-02-23T06:35:59;9.50;90.40
3298;DHT22;1661;53.572;10.174;2023-02-23T06:38:26;9.50;90.40
3298;DHT22;1661;53.572;10.174;2023-02-23T06:40:53;9.50;90.40
3298;DHT22;1661;53.572;10.174;2023-02-23T06:43:20;9.50;90.40
3298;DHT22;1661;53.572;10.174;2023-02-23T06:45:47;9.60;90.30
3298;DHT22;1661;53.572;10.174;2023-02-23T06:48:14;9.60;90.30
3298;DHT22;1661;53.572;10.174;2023-02-23T06:50:42;9.60;90.30
3298;DHT22;1661;53.572;10.174;2023-02-23T06:53:10;9.60;90.30
3298;DHT22;1661;53.572;10.174;2023-02-23T06:55:37;9.60;90.20
3298;DHT22;1661;53.572;10.174;2023-02-23T06:58:04;9.60;90.10
3298;DHT22;1661;53.572;10.174;2023-02-23T07:00:32;9.70;90.10
3298;DHT22;1661;53.572;10.174;2023-02-23T07:03:02;9.70;90.00
3298;DHT22;1661;53.572;10.174;2023-02-23T07:05:28;9.70;90.00
3298;DHT22;1661;53.572;10.174;2023-02-23T07:07:55;9.70;89.90
3298;DHT22;1661;53.572;10.174;2023-02-23T07:10:23;9.70;89.90
3298;DHT22;1661;53.572;10.174;2023-02-23T07:12:55;9.70;90.00
3298;DHT22;1661;53.572;10.174;2023-02-23T07:15:24;9.70;90.00
3298;DHT22;1661;53.572;10.174;2023-02-23T07:17:50;9.70;90.00
3298;DHT22;1661;53.572;10.174;2023-02-23T07:20:18;9.70;90.00
3298;DHT22;1661;53.572;10.174;2023-02-23T07:22:45;9.70;89.80
3298;DHT22;1661;53.572;10.174;2023-02-23T07:25:11;9.70;89.80
3298;DHT22;1661;53.572;10.174;2023-02-23T07:27:39;9.70;89.80
3298;DHT22;1661;53.572;10.174;2023-02-23T07:30:12;9.70;89.70
3298;DHT22;1661;53.572;10.174;2023-02-23T07:32:39;9.70;89.70
3298;DHT22;1661;53.572;10.174;2023-02-23T07:35:06;9.70;89.50
3298;DHT22;1661;53.572;10.174;2023-02-23T07:37:36;9.70;89.70
3298;DHT22;1661;53.572;10.174;2023-02-23T07:40:03;9.70;89.70
3298;DHT22;1661;53.572;10.174;2023-02-23T07:42:30;9.70;89.70
3298;DHT22;1661;53.572;10.174;2023-02-23T07:45:01;9.70;89.70
3298;DHT22;1661;53.572;10.174;2023-02-23T07:47:28;9.70;89.80
3298;DHT22;1661;53.572;10.174;2023-02-23T07:49:56;9.70;89.90
3298;DHT22;1661;53.572;10.174;2023-02-23T07:52:26;9.70;89.90
3298;DHT22;1661;53.572;10.174;2023-02-23T07:54:53;9.80;90.00
3298;DHT22;1661;53.572;10.174;2023-02-23T07:57:20;9.80;90.00
3298;DHT22;1661;53.572;10.174;2023-02-23T07:59:48;9.80;90.10
3298;DHT22;1661;53.572;10.174;2023-02-23T08:02:16;9.80;90.10
3298;DHT22;1661;53.572;10.174;2023-02-23T08:04:43;9.90;90.00
3298;DHT22;1661;53.572;10.174;2023-02-23T08:07:12;9.90;90.00
3298;DHT22;1661;53.572;10.174;2023-02-23T08:09:39;9.90;89.90
3298;DHT22;1661;53.572;10.174;2023-02-23T08:12:06;9.90;90.00
3298;DHT22;1661;53.572;10.174;2023-02-23T08:14:35;9.90;90.10
3298;DHT22;1661;53.572;10.174;2023-02-23T08:17:04;9.90;90.20
3298;DHT22;1661;53.572;10.174;2023-02-23T08:19:32;9.90;90.20
3298;DHT22;1661;53.572;10.174;2023-02-23T08:21:59;9.80;90.40
3298;DHT22;1661;53.572;10.174;2023-02-23T08:24:29;9.90;90.40
3298;DHT22;1661;53.572;10.174;2023-02-23T08:27:00;9.90;90.50
3298;DHT22;1661;53.572;10.174;2023-02-23T08:29:35;9.90;90.50
3298;DHT22;1661;53.572;10.174;2023-02-23T08:32:04;9.90;90.50
3298;DHT22;1661;53.572;10.174;2023-02-23T08:34:36;9.90;90.40
3298;DHT22;1661;53.572;10.174;2023-02-23T08:37:03;9.90;90.40
3298;DHT22;1661;53.572;10.174;2023-02-23T08:39:30;9.90;90.40
3298;DHT22;1661;53.572;10.174;2023-02-23T08:41:57;9.90;90.40
3298;DHT22;1661;53.572;10.174;2023-02-23T08:44:26;9.90;90.30
3298;DHT22;1661;53.572;10.174;2023-02-23T08:46:59;9.70;90.90
3298;DHT22;1661;53.572;10.174;2023-02-23T08:49:28;9.70;91.20
3298;DHT22;1661;53.572;10.174;2023-02-23T08:51:58;9.80;91.20
3298;DHT22;1661;53.572;10.174;2023-02-23T08:54:25;9.80;91.10
3298;DHT22;1661;53.572;10.174;2023-02-23T08:56:55;9.70;91.20
3298;DHT22;1661;53.572;10.174;2023-02-23T08:59:22;9.70;91.30
3298;DHT22;1661;53.572;10.174;2023-02-23T09:01:50;9.60;90.90
3298;DHT22;1661;53.572;10.174;2023-02-23T09:04:17;9.50;91.30
3298;DHT22;1661;53.572;10.174;2023-02-23T09:06:44;9.50;91.40
3298;DHT22;1661;53.572;10.174;2023-02-23T09:09:13;9.50;91.50
3298;DHT22;1661;53.572;10.174;2023-02-23T09:11:40;9.40;91.70
3298;DHT22;1661;53.572;10.174;2023-02-23T09:14:07;9.40;91.70
3298;DHT22;1661;53.572;10.174;2023-02-23T09:16:34;9.40;91.70
3298;DHT22;1661;53.572;10.174;2023-02-23T09:19:01;9.50;91.50
3298;DHT22;1661;53.572;10.174;2023-02-23T09:21:30;9.30;92.00
3298;DHT22;1661;53.572;10.174;2023-02-23T09:23:59;9.40;92.10
3298;DHT22;1661;53.572;10.174;2023-02-23T09:26:27;9.50;92.00
3298;DHT22;1661;53.572;10.174;2023-02-23T09:28:58;9.50;91.90
3298;DHT22;1661;53.572;10.174;2023-02-23T09:31:25;9.50;92.00
3298;DHT22;1661;53.572;10.174;2023-02-23T09:33:53;9.50;91.70
3298;DHT22;1661;53.572;10.174;2023-02-23T09:36:22;9.40;92.20
3298;DHT22;1661;53.572;10.174;2023-02-23T09:38:51;9.50;92.30
3298;DHT22;1661;53.572;10.174;2023-02-23T09:41:52;9.50;92.20
3298;DHT22;1661;53.572;10.174;2023-02-23T09:44:35;9.50;92.20
3298;DHT22;1661;53.572;10.174;2023-02-23T09:47:24;9.50;92.20
3298;DHT22;1661;53.572;10.174;2023-02-23T09:49:54;9.50;92.20
3298;DHT22;1661;53.572;10.174;2023-02-23T09:52:24;9.60;92.10
3298;DHT22;1661;53.572;10.174;2023-02-23T09:54:52;9.70;91.90
3298;DHT22;1661;53.572;10.174;2023-02-23T09:57:35;9.50;91.40
3298;DHT22;1661;53.572;10.174;2023-02-23T10:00:05;9.40;91.20
3298;DHT22;1661;53.572;10.174;2023-02-23T10:02:37;9.40;91.40
3298;DHT22;1661;53.572;10.174;2023-02-23T10:05:09;9.30;91.30
3298;DHT22;1661;53.572;10.174;2023-02-23T10:07:46;9.10;91.30
3298;DHT22;1661;53.572;10.174;2023-02-23T10:10:21;9.00;92.30
3298;DHT22;1661;53.572;10.174;2023-02-23T10:12:57;8.80;92.40
3298;DHT22;1661;53.572;10.174;2023-02-23T10:15:33;8.70;93.00
3298;DHT22;1661;53.572;10.174;2023-02-23T10:18:09;8.70;93.30
3298;DHT22;1661;53.572;10.174;2023-02-23T10:20:43;8.80;93.30
3298;DHT22;1661;53.572;10.174;2023-02-23T10:23:16;8.80;93.30
3298;DHT22;1661;53.572;10.174;2023-02-23T10:25:47;8.90;93.10
3298;DHT22;1661;53.572;10.174;2023-02-23T10:28:18;8.90;93.00
3298;DHT22;1661;53.572;10.174;2023-02-23T10:30:47;9.00;92.90
3298;DHT22;1661;53.572;10.174;2023-02-23T10:33:20;9.10;92.80
3298;DHT22;1661;53.572;10.174;2023-02-23T10:35:49;9.10;92.30
3298;DHT22;1661;53.572;10.174;2023-02-23T10:38:18;9.00;92.00
3298;DHT22;1661;53.572;10.174;2023-02-23T10:40:54;9.10;92.30
3298;DHT22;1661;53.572;10.174;2023-02-23T10:43:24;9.10;91.70
3298;DHT22;1661;53.572;10.174;2023-02-23T10:45:52;9.20;91.70
3298;DHT22;1661;53.572;10.174;2023-02-23T10:48:21;9.20;91.00
3298;DHT22;1661;53.572;10.174;2023-02-23T10:50:51;9.30;90.90
3298;DHT22;1661;53.572;10.174;2023-02-23T10:53:25;9.20;90.40
3298;DHT22;1661;53.572;10.174;2023-02-23T10:56:04;9.30;90.70
3298;DHT22;1661;53.572;10.174;2023-02-23T10:58:40;9.30;90.40
3298;DHT22;1661;53.572;10.174;2023-02-23T11:01:08;9.20;89.50
3298;DHT22;1661;53.572;10.174;2023-02-23T11:03:38;9.10;90.00
3298;DHT22;1661;53.572;10.174;2023-02-23T11:06:28;9.20;90.20
3298;DHT22;1661;53.572;10.174;2023-02-23T11:08:55;9.30;90.20
3298;DHT22;1661;53.572;10.174;2023-02-23T11:11:24;9.30;89.70
3298;DHT22;1661;53.572;10.174;2023-02-23T11:13:55;9.40;89.80
3298;DHT22;1661;53.572;10.174;2023-02-23T11:16:24;9.50;89.50
3298;DHT22;1661;53.572;10.174;2023-02-23T11:18:55;9.50;89.50
3298;DHT22;1661;53.572;10.174;2023-02-23T11:21:25;9.40;89.10
3298;DHT22;1661;53.572;10.174;2023-02-23T11:23:56;9.40;89.30
3298;DHT22;1661;53.572;10.174;2023-02-23T11:26:35;9.40;89.10
3298;DHT22;1661;53.572;10.174;2023-02-23T11:29:12;9.40;89.10
3298;DHT22;1661;53.572;10.174;2023-02-23T11:31:46;9.20;89.40
3298;DHT22;1661;53.572;10.174;2023-02-23T11:34:21;9.20;89.40
3298;DHT22;1661;53.572;10.174;2023-02-23T11:36:58;9.10;89.00
3298;DHT22;1661;53.572;10.174;2023-02-23T11:39:25;9.10;89.40
3298;DHT22;1661;53.572;10.174;2023-02-23T11:42:05;9.10;89.10
3298;DHT22;1661;53.572;10.174;2023-02-23T11:44:39;9.10;89.10
3298;DHT22;1661;53.572;10.174;2023-02-23T11:47:13;9.20;89.00
3298;DHT22;1661;53.572;10.174;2023-02-23T11:49:44;9.30;88.60
3298;DHT22;1661;53.572;10.174;2023-02-23T11:52:15;9.10;88.40
3298;DHT22;1661;53.572;10.174;2023-02-23T11:54:49;9.20;88.50
3298;DHT22;1661;53.572;10.174;2023-02-23T11:57:22;9.20;88.00
3298;DHT22;1661;53.572;10.174;2023-02-23T11:59:51;9.20;87.30
3298;DHT22;1661;53.572;10.174;2023-02-23T12:02:22;9.30;87.70
3298;DHT22;1661;53.572;10.174;2023-02-23T12:04:52;9.10;86.40
3298;DHT22;1661;53.572;10.174;2023-02-23T12:07:30;9.20;87.30
3298;DHT22;1661;53.572;10.174;2023-02-23T12:10:10;9.20;87.50
3298;DHT22;1661;53.572;10.174;2023-02-23T12:12:44;9.20;87.70
3298;DHT22;1661;53.572;10.174;2023-02-23T12:15:24;9.40;87.70
3298;DHT22;1661;53.572;10.174;2023-02-23T12:17:56;9.40;87.70
3298;DHT22;1661;53.572;10.174;2023-02-23T12:20:28;9.50;87.40
3298;DHT22;1661;53.572;10.174;2023-02-23T12:23:02;9.60;87.10
3298;DHT22;1661;53.572;10.174;2023-02-23T12:25:35;9.50;86.40
3298;DHT22;1661;53.572;10.174;2023-02-23T12:28:13;9.50;86.60
3298;DHT22;1661;53.572;10.174;2023-02-23T12:30:50;9.40;85.40
3298;DHT22;1661;53.572;10.174;2023-02-23T12:33:23;9.40;86.40
3298;DHT22;1661;53.572;10.174;2023-02-23T12:36:00;9.50;86.70
3298;DHT22;1661;53.572;10.174;2023-02-23T12:38:44;9.60;86.60
3298;DHT22;1661;53.572;10.174;2023-02-23T12:41:17;9.70;86.70
3298;DHT22;1661;53.572;10.174;2023-02-23T12:43:48;9.60;85.90
3298;DHT22;1661;53.572;10.174;2023-02-23T12:46:25;9.40;84.60
3298;DHT22;1661;53.572;10.174;2023-02-23T12:49:01;9.50;85.40
3298;DHT22;1661;53.572;10.174;2023-02-23T12:51:34;9.60;85.80
3298;DHT22;1661;53.572;10.174;2023-02-23T12:54:02;9.80;85.70
3298;DHT22;1661;53.572;10.174;2023-02-23T12:56:41;9.80;85.20
3298;DHT22;1661;53.572;10.174;2023-02-23T12:59:19;9.70;84.50
3298;DHT22;1661;53.572;10.174;2023-02-23T13:01:56;9.70;84.10
3298;DHT22;1661;53.572;10.174;2023-02-23T13:04:50;9.70;84.30
3298;DHT22;1661;53.572;10.174;2023-02-23T13:07:21;9.70;84.40
3298;DHT22;1661;53.572;10.174;2023-02-23T13:09:59;9.70;84.50
3298;DHT22;1661;53.572;10.174;2023-02-23T13:12:43;9.80;84.50
3298;DHT22;1661;53.572;10.174;2023-02-23T13:15:22;9.80;83.90
3298;DHT22;1661;53.572;10.174;2023-02-23T13:17:57;9.60;83.80
3298;DHT22;1661;53.572;10.174;2023-02-23T13:20:32;9.60;84.50
3298;DHT22;1661;53.572;10.174;2023-02-23T13:23:17;9.50;84.50
3298;DHT22;1661;53.572;10.174;2023-02-23T13:25:50;9.60;84.50
3298;DHT22;1661;53.572;10.174;2023-02-23T13:28:26;9.60;84.40
3298;DHT22;1661;53.572;10.174;2023-02-23T13:30:54;9.70;84.50
3298;DHT22;1661;53.572;10.174;2023-02-23T13:33:27;9.60;83.80
3298;DHT22;1661;53.572;10.174;2023-02-23T13:35:59;9.60;84.10
3298;DHT22;1661;53.572;10.174;2023-02-23T13:38:32;9.50;84.20
3298;DHT22;1661;53.572;10.174;2023-02-23T13:41:06;9.50;84.50
3298;DHT22;1661;53.572;10.174;2023-02-23T13:43:40;9.50;84.50
3298;DHT22;1661;53.572;10.174;2023-02-23T13:46:20;9.40;84.50
3298;DHT22;1661;53.572;10.174;2023-02-23T13:48:55;9.50;84.90
3298;DHT22;1661;53.572;10.174;2023-02-23T13:51:34;9.60;84.90
3298;DHT22;1661;53.572;10.174;2023-02-23T13:54:23;9.60;84.80
3298;DHT22;1661;53.572;10.174;2023-02-23T13:56:55;9.50;84.30
3298;DHT22;1661;53.572;10.174;2023-02-23T13:59:26;9.40;84.40
3298;DHT22;1661;53.572;10.174;2023-02-23T14:01:54;9.30;85.00
3298;DHT22;1661;53.572;10.174;2023-02-23T14:04:24;9.30;85.00
3298;DHT22;1661;53.572;10.174;2023-02-23T14:06:54;9.30;85.20
3298;DHT22;1661;53.572;10.174;2023-02-23T14:09:28;9.40;84.60
3298;DHT22;1661;53.572;10.174;2023-02-23T14:12:02;9.40;85.00
3298;DHT22;1661;53.572;10.174;2023-02-23T14:14:40;9.40;84.90
3298;DHT22;1661;53.572;10.174;2023-02-23T14:20:12;9.50;84.30
3298;DHT22;1661;53.572;10.174;2023-02-23T14:23:12;9.60;84.40
3298;DHT22;1661;53.572;10.174;2023-02-23T14:25:47;9.70;84.40
3298;DHT22;1661;53.572;10.174;2023-02-23T14:28:25;9.70;84.30
3298;DHT22;1661;53.572;10.174;2023-02-23T14:31:01;9.70;84.10
3298;DHT22;1661;53.572;10.174;2023-02-23T14:33:37;9.60;84.20
3298;DHT22;1661;53.572;10.174;2023-02-23T14:39:12;9.60;84.40
3298;DHT22;1661;53.572;10.174;2023-02-23T14:41:45;9.50;84.50
3298;DHT22;1661;53.572;10.174;2023-02-23T14:44:19;9.40;84.40
3298;DHT22;1661;53.572;10.174;2023-02-23T14:46:49;9.50;84.70
3298;DHT22;1661;53.572;10.174;2023-02-23T14:49:20;9.50;84.20
3298;DHT22;1661;53.572;10.174;2023-02-23T14:51:51;9.40;84.30
3298;DHT22;1661;53.572;10.174;2023-02-23T14:54:25;9.50;84.90
3298;DHT22;1661;53.572;10.174;2023-02-23T14:56:55;9.50;84.50
3298;DHT22;1661;53.572;10.174;2023-02-23T14:59:28;9.50;84.60
3298;DHT22;1661;53.572;10.174;2023-02-23T15:02:06;9.60;84.70
3298;DHT22;1661;53.572;10.174;2023-02-23T15:04:32;9.60;84.50
3298;DHT22;1661;53.572;10.174;2023-02-23T15:07:04;9.70;84.10
3298;DHT22;1661;53.572;10.174;2023-02-23T15:09:35;9.70;83.60
3298;DHT22;1661;53.572;10.174;2023-02-23T15:12:12;9.70;83.90
3298;DHT22;1661;53.572;10.174;2023-02-23T15:14:39;9.60;84.00
3298;DHT22;1661;53.572;10.174;2023-02-23T15:17:15;9.60;84.10
3298;DHT22;1661;53.572;10.174;2023-02-23T15:19:43;9.70;83.60
3298;DHT22;1661;53.572;10.174;2023-02-23T15:22:21;9.70;83.70
3298;DHT22;1661;53.572;10.174;2023-02-23T15:24:50;9.80;83.50
3298;DHT22;1661;53.572;10.174;2023-02-23T15:27:20;9.70;82.50
3298;DHT22;1661;53.572;10.174;2023-02-23T15:29:50;9.60;83.10
3298;DHT22;1661;53.572;10.174;2023-02-23T15:32:19;9.60;84.10
3298;DHT22;1661;53.572;10.174;2023-02-23T15:34:46;9.60;84.40
3298;DHT22;1661;53.572;10.174;2023-02-23T15:37:25;9.60;84.40
3298;DHT22;1661;53.572;10.174;2023-02-23T15:39:57;9.70;84.30
3298;DHT22;1661;53.572;10.174;2023-02-23T15:42:36;9.60;83.40
3298;DHT22;1661;53.572;10.174;2023-02-23T15:45:13;9.60;83.70
3298;DHT22;1661;53.572;10.174;2023-02-23T15:47:42;9.60;83.80
3298;DHT22;1661;53.572;10.174;2023-02-23T15:50:16;9.70;83.70
3298;DHT22;1661;53.572;10.174;2023-02-23T15:52:50;9.60;83.70
3298;DHT22;1661;53.572;10.174;2023-02-23T15:55:23;9.70;83.90
3298;DHT22;1661;53.572;10.174;2023-02-23T15:57:53;9.70;84.00
3298;DHT22;1661;53.572;10.174;2023-02-23T16:00:27;9.80;84.00
3298;DHT22;1661;53.572;10.174;2023-02-23T16:02:58;9.70;84.10
3298;DHT22;1661;53.572;10.174;2023-02-23T16:05:28;9.60;84.10
3298;DHT22;1661;53.572;10.174;2023-02-23T16:08:03;9.50;84.50
3298;DHT22;1661;53.572;10.174;2023-02-23T16:10:45;9.50;85.10
3298;DHT22;1661;53.572;10.174;2023-02-23T16:13:14;9.30;85.80
3298;DHT22;1661;53.572;10.174;2023-02-23T16:15:42;9.30;86.20
3298;DHT22;1661;53.572;10.174;2023-02-23T16:18:12;9.10;86.80
3298;DHT22;1661;53.572;10.174;2023-02-23T16:20:45;9.10;87.00
3298;DHT22;1661;53.572;10.174;2023-02-23T16:23:21;9.20;87.00
3298;DHT22;1661;53.572;10.174;2023-02-23T16:25:54;9.20;87.10
3298;DHT22;1661;53.572;10.174;2023-02-23T16:28:26;9.20;87.20
3298;DHT22;1661;53.572;10.174;2023-02-23T16:30:58;9.10;87.40
3298;DHT22;1661;53.572;10.174;2023-02-23T16:33:30;9.10;87.70
3298;DHT22;1661;53.572;10.174;2023-02-23T16:36:15;8.90;88.30
3298;DHT22;1661;53.572;10.174;2023-02-23T16:38:53;9.00;88.40
3298;DHT22;1661;53.572;10.174;2023-02-23T16:41:27;8.90;88.50
3298;DHT22;1661;53.572;10.174;2023-02-23T16:43:57;9.00;88.60
3298;DHT22;1661;53.572;10.174;2023-02-23T16:46:27;9.00;88.40
3298;DHT22;1661;53.572;10.174;2023-02-23T16:48:55;9.00;88.40
3298;DHT22;1661;53.572;10.174;2023-02-23T16:51:35;9.00;88.40
3298;DHT22;1661;53.572;10.174;2023-02-23T16:54:01;8.90;88.60